Time;durP1;ratioP1;P1;durP2;ratioP2;P2;SDS_P1;SDS_P2;PMS_P1;PMS_P2;Temp;Humidity;BMP_temperature;BMP_pressure;BME280_temperature;BME280_humidity;BME280_pressure;Samples;Min_cycle;Max_cycle;Signal;HPM_P1;HPM_P2
2024/04/17 00:08:58;;;;;;;;;;;;;;;;;;23032457;25;19980;-56
2024/04/17 00:18:59;;;;;;;;;;;;;;;;;;23032556;25;19938;-56
2024/04/17 00:29:00;;;;;;;;;;;;;;;;;;23033019;25;19934;-56
2024/04/17 00:39:03;;;;;;;;;;;;;;;;;;23030223;25;19934;-55
2024/04/17 00:49:05;;;;;;;;;;;;;;;;;;23030339;25;19934;-55
2024/04/17 00:59:06;;;;;;;;;;;;;;;;;;23029639;25;19927;-55
2024/04/17 01:09:07;;;;;;;;;;;;;;;;;;23028050;25;19953;-55
2024/04/17 01:19:09;;;;;;;;;;;;;;;;;;23028623;25;19938;-56
2024/04/17 01:29:10;;;;;;;;;;;;;;;;;;23028115;25;19938;-55
2024/04/17 01:39:11;;;;;;;;;;;;;;;;;;23027144;25;19938;-55
2024/04/17 01:49:13;;;;;;;;;;;;;;;;;;23027599;25;19938;-56
2024/04/17 01:59:14;;;;;;;;;;;;;;;;;;23025523;25;19935;-55
2024/04/17 02:09:15;;;;;;;;;;;;;;;;;;23024919;25;19942;-56
2024/04/17 02:19:18;;;;;;;;;;;;;;;;;;23024138;25;19934;-56
2024/04/17 02:29:19;;;;;;;;;;;;;;;;;;23039429;25;20292;-56
2024/04/17 02:39:20;;;;;;;;;;;;;;;;;;23040360;25;19930;-56
2024/04/17 02:49:21;;;;;;;;;;;;;;;;;;23039662;25;20343;-56
2024/04/17 02:59:22;;;;;;;;;;;;;;;;;;23039465;25;19927;-56
2024/04/17 03:09:24;;;;;;;;;;;;;;;;;;23034885;25;19971;-56
2024/04/17 03:19:25;;;;;;;;;;;;;;;;;;23035254;25;19926;-55
2024/04/17 03:29:26;;;;;;;;;;;;;;;;;;23033690;25;20002;-55
2024/04/17 03:39:27;;;;;;;;;;;;;;;;;;23033942;25;19957;-54
2024/04/17 03:49:29;;;;;;;;;;;;;;;;;;23032266;25;19934;-55
2024/04/17 03:59:30;;;;;;;;;;;;;;;;;;23032566;25;19931;-55
2024/04/17 04:09:31;;;;;;;;;;;;;;;;;;23031420;25;19935;-55
2024/04/17 04:19:33;;;;;;;;;;;;;;;;;;23031982;25;19927;-55
2024/04/17 04:29:34;;;;;;;;;;;;;;;;;;23030409;25;19958;-55
2024/04/17 04:39:35;;;;;;;;;;;;;;;;;;23029147;25;19927;-55
2024/04/17 04:49:36;;;;;;;;;;;;;;;;;;23027077;25;19964;-55
2024/04/17 04:59:38;;;;;;;;;;;;;;;;;;23028727;25;19972;-55
2024/04/17 05:09:39;;;;;;;;;;;;;;;;;;23027600;25;19927;-55
2024/04/17 05:19:40;;;;;;;;;;;;;;;;;;23028400;25;19934;-55
2024/04/17 05:29:42;;;;;;;;;;;;;;;;;;23027925;25;19933;-56
2024/04/17 05:39:43;;;;;;;;;;;;;;;;;;23027694;25;19927;-55
2024/04/17 05:49:45;;;;;;;;;;;;;;;;;;23026120;25;19934;-56
2024/04/17 05:59:47;;;;;;;;;;;;;;;;;;23033764;25;20360;-56
2024/04/17 06:09:49;;;;;;;;;;;;;;;;;;23038462;25;19931;-55
2024/04/17 06:19:50;;;;;;;;;;;;;;;;;;23039156;25;19957;-56
2024/04/17 06:29:51;;;;;;;;;;;;;;;;;;23038116;25;19952;-56
2024/04/17 06:39:53;;;;;;;;;;;;;;;;;;23038070;25;19995;-55
2024/04/17 06:49:56;;;;;;;;;;;;;;;;;;23037046;25;19927;-56
2024/04/17 06:59:58;;;;;;;;;;;;;;;;;;23035705;25;19927;-56
2024/04/17 07:10:00;;;;;;;;;;;;;;;;;;23032704;25;19966;-56
2024/04/17 07:20:01;;;;;;;;;;;;;;;;;;23033334;25;19929;-56
2024/04/17 07:30:02;;;;;;;;;;;;;;;;;;23033200;25;19927;-56
2024/04/17 07:40:05;;;;;;;;;;;;;;;;;;23033181;25;19927;-55
2024/04/17 07:50:26;;;;;;;;;;;;;;;;;;23030807;25;19926;-56
2024/04/17 08:00:27;;;;;;;;;;;15.50;43.80;;;;;;23028195;25;19927;-53
2024/04/17 08:10:28;;;;;;;;;;;15.30;43.60;;;;;;23029086;25;19967;-55
2024/04/17 08:20:30;;;;;;;;;;;15.40;43.50;;;;;;23027098;25;19927;-54
2024/04/17 08:30:31;;;;;;;;;;;15.40;43.70;;;;;;23027887;25;19963;-58
2024/04/17 08:40:36;;;;;;;;;;;15.60;43.40;;;;;;23025227;25;20159;-56
2024/04/17 08:50:37;;;;;;;;;;;15.80;42.90;;;;;;23026361;25;19942;-54
2024/04/17 09:00:38;;;;;;;;;;;16.10;42.60;;;;;;23024357;25;19927;-53
2024/04/17 09:10:39;;;;;;;;;;;16.30;43.70;;;;;;23022715;25;19926;-55
2024/04/17 09:20:42;;;;;;;;;;;16.40;41.50;;;;;;23022992;25;19927;-54
2024/04/17 09:30:47;;;;;;;;;;;16.80;41.00;;;;;;23024278;25;19934;-55
2024/04/17 09:40:48;;;;;;;;;;;17.00;40.30;;;;;;23188892;25;19926;-55
2024/04/17 09:50:49;;;;;;;;;;;16.30;41.70;;;;;;23176529;25;20504;-53
2024/04/17 10:00:50;;;;;;;;;;;16.50;41.80;;;;;;23184196;25;19993;-54
2024/04/17 10:10:52;;;;;;;;;;;16.80;40.40;;;;;;23193337;25;19958;-56
2024/04/17 10:20:55;;;;;;;;;;;16.80;40.00;;;;;;23195085;25;19926;-57
2024/04/17 10:30:56;;;;;;;;;;;16.90;40.20;;;;;;23194868;25;19926;-56
2024/04/17 10:40:57;;;;;;;;;;;17.10;40.30;;;;;;23191085;25;19931;-57
2024/04/17 10:51:00;;;;;;;;;;;17.20;40.40;;;;;;23192330;25;20345;-56
2024/04/17 11:01:01;;;;;;;;;;;17.50;40.10;;;;;;23190504;25;20206;-57
2024/04/17 11:11:05;;;;;;;;;;;17.70;39.50;;;;;;23187330;25;20002;-56
2024/04/17 11:21:09;;;;;;;;;;;18.60;45.10;;;;;;23183171;25;19926;-57
2024/04/17 11:31:11;;;;;;;;;;;18.50;37.90;;;;;;23187866;25;19927;-57
2024/04/17 11:41:15;;;;;;;;;;;18.40;37.20;;;;;;23188817;25;20259;-58
2024/04/17 11:51:16;;;;;;;;;;;18.70;37.10;;;;;;23187547;25;20364;-57
2024/04/17 12:01:17;;;;;;;;;;;18.60;37.40;;;;;;23186174;25;19927;-57
2024/04/17 12:11:19;;;;;;;;;;;18.80;36.90;;;;;;23187221;25;19962;-58
2024/04/17 12:21:20;;;;;;;;;;;19.00;36.70;;;;;;23188668;25;19926;-59
2024/04/17 12:31:21;;;;;;;;;;;19.20;36.00;;;;;;23186511;25;20216;-58
2024/04/17 12:41:23;;;;;;;;;;;19.50;35.80;;;;;;23186732;25;20288;-57
2024/04/17 12:51:25;;;;;;;;;;;19.70;35.40;;;;;;23185955;25;20387;-58
2024/04/17 13:01:28;;;;;;;;;;;19.70;35.10;;;;;;23185200;25;19937;-58
2024/04/17 13:11:30;;;;;;;;;;;19.90;35.10;;;;;;23181861;25;19934;-57
2024/04/17 13:21:31;;;;;;;;;;;20.10;34.80;;;;;;23181696;25;19938;-56
2024/04/17 13:31:32;;;;;;;;;;;20.20;34.90;;;;;;23180735;25;19993;-57
2024/04/17 13:41:33;;;;;;;;;;;20.40;34.30;;;;;;23180485;25;20308;-57
2024/04/17 13:51:34;;;;;;;;;;;20.60;34.20;;;;;;23180027;25;19997;-57
2024/04/17 14:01:36;;;;;;;;;;;20.70;34.30;;;;;;23173013;25;19926;-54
2024/04/17 14:11:38;;;;;;;;;;;21.00;34.00;;;;;;23168961;25;19930;-56
2024/04/17 14:21:40;;;;;;;;;;;21.20;35.40;;;;;;23185903;25;19931;-55
2024/04/17 14:31:42;;;;;;;;;;;21.20;35.50;;;;;;23189408;25;19938;-55
2024/04/17 14:41:43;;;;;;;;;;;21.40;35.00;;;;;;23186209;25;19934;-57
2024/04/17 14:51:44;;;;;;;;;;;21.50;33.50;;;;;;23185636;25;19926;-54
2024/04/17 15:01:46;;;;;;;;;;;21.90;32.60;;;;;;23188524;25;19926;-55
2024/04/17 15:11:48;;;;;;;;;;;21.80;32.50;;;;;;23174675;25;19927;-56
2024/04/17 15:21:50;;;;;;;;;;;21.70;33.00;;;;;;23175368;25;19933;-55
2024/04/17 15:31:55;;;;;;;;;;;21.70;33.10;;;;;;23185753;25;19930;-54
2024/04/17 15:41:57;;;;;;;;;;;21.80;33.30;;;;;;23188703;25;20316;-56
2024/04/17 15:52:02;;;;;;;;;;;21.80;33.20;;;;;;23180032;25;19955;-58
2024/04/17 16:02:03;;;;;;;;;;;21.80;33.20;;;;;;23028833;25;20030;-57
2024/04/17 16:12:04;;;;;;;;;;;21.70;33.20;;;;;;23028764;25;19927;-56
2024/04/17 16:22:07;;;;;;;;;;;21.70;33.20;;;;;;23029413;25;19934;-57
2024/04/17 16:32:09;;;;;;;;;;;21.80;33.50;;;;;;23028619;25;20359;-56
2024/04/17 16:42:10;;;;;;;;;;;21.80;33.40;;;;;;23027871;25;19927;-56
2024/04/17 16:52:11;;;;;;;;;;;21.90;33.10;;;;;;23027195;25;19927;-57
2024/04/17 17:02:12;;;;;;;;;;;21.90;33.30;;;;;;23027094;25;20359;-55
2024/04/17 17:12:13;;;;;;;;;;;21.90;34.70;;;;;;23084033;25;19926;-55
2024/04/17 17:22:16;;;;;;;;;;;21.80;33.60;;;;;;23134008;25;20049;-57
2024/04/17 17:32:17;;;;;;;;;;;21.90;34.60;;;;;;23161116;25;19926;-56
2024/04/17 17:42:18;;;;;;;;;;;21.80;34.60;;;;;;23171874;25;19958;-56
2024/04/17 17:52:23;;;;;;;;;;;21.70;33.50;;;;;;23177636;25;20034;-55
2024/04/17 18:02:25;;;;;;;;;;;21.70;34.80;;;;;;23189415;25;19926;-59
2024/04/17 18:12:26;;;;;;;;;;;21.70;34.60;;;;;;23188518;25;20002;-58
2024/04/17 18:22:28;;;;;;;;;;;21.70;34.80;;;;;;23172498;25;19959;-56
2024/04/17 18:32:30;;;;;;;;;;;21.60;35.30;;;;;;23181993;25;19934;-55
2024/04/17 18:42:32;;;;;;;;;;;21.50;35.70;;;;;;23187654;25;19930;-55
2024/04/17 18:52:33;;;;;;;;;;;21.30;34.70;;;;;;23185708;25;19933;-56
2024/04/17 19:02:37;;;;;;;;;;;21.20;36.80;;;;;;23184705;25;19926;-57
2024/04/17 19:12:41;;;;;;;;;;;21.60;34.30;;;;;;23184771;25;20227;-58
2024/04/17 19:22:43;;;;;;;;;;;20.90;34.70;;;;;;23178175;25;19954;-57
2024/04/17 19:32:47;;;;;;;;;;;21.20;45.60;;;;;;23185802;25;19954;-57
2024/04/17 19:42:48;;;;;;;;;;;21.10;40.50;;;;;;23185991;25;19930;-57
2024/04/17 19:52:49;;;;;;;;;;;21.00;42.30;;;;;;23185036;25;19926;-56
2024/04/17 20:02:50;;;;;;;;;;;20.90;42.10;;;;;;23184489;25;19930;-56
2024/04/17 20:12:51;;;;;;;;;;;20.80;40.70;;;;;;23184889;25;19926;-55
2024/04/17 20:22:52;;;;;;;;;;;20.60;33.50;;;;;;23179080;25;20046;-57
2024/04/17 20:32:53;;;;;;;;;;;20.20;31.60;;;;;;23171144;25;19933;-57
2024/04/17 20:42:55;;;;;;;;;;;19.70;32.50;;;;;;23182149;25;20006;-57
2024/04/17 20:52:58;;;;;;;;;;;19.50;33.10;;;;;;23185812;25;20256;-56
2024/04/17 21:02:59;;;;;;;;;;;19.30;33.40;;;;;;23185424;25;19926;-56
2024/04/17 21:13:00;;;;;;;;;;;19.10;33.60;;;;;;23184234;25;19934;-56
2024/04/17 21:23:01;;;;;;;;;;;19.10;33.90;;;;;;23184236;25;19993;-57
2024/04/17 21:33:02;;;;;;;;;;;19.00;33.20;;;;;;23181318;25;19926;-57
2024/04/17 21:43:06;;;;;;;;;;;19.00;33.50;;;;;;23181803;25;19935;-57
2024/04/17 21:53:08;;;;;;;;;;;18.70;34.00;;;;;;23181168;25;20332;-56
2024/04/17 22:03:10;;;;;;;;;;;18.60;34.60;;;;;;23179654;25;19931;-57
2024/04/17 22:13:12;;;;;;;;;;;18.40;34.90;;;;;;23180427;25;19965;-57
2024/04/17 22:23:13;;;;;;;;;;;18.20;35.20;;;;;;23179070;25;19954;-58
2024/04/17 22:33:14;;;;;;;;;;;17.90;36.20;;;;;;23178213;25;19934;-57
2024/04/17 22:43:15;;;;;;;;;;;17.80;36.40;;;;;;23189727;25;20340;-56
2024/04/17 22:53:16;;;;;;;;;;;17.60;37.00;;;;;;23193312;25;19926;-55
2024/04/17 23:03:17;;;;;;;;;;;17.60;37.60;;;;;;23192827;25;20355;-57
2024/04/17 23:13:18;;;;;;;;;;;17.70;38.20;;;;;;23190625;25;19934;-58
2024/04/17 23:23:19;;;;;;;;;;;17.60;38.40;;;;;;23191748;25;19926;-57
2024/04/17 23:33:20;;;;;;;;;;;17.50;39.10;;;;;;23189696;25;19934;-56
2024/04/17 23:43:21;;;;;;;;;;;17.40;39.50;;;;;;23189257;25;20320;-55
2024/04/17 23:53:22;;;;;;;;;;;17.30;39.60;;;;;;23188292;25;19926;-56
